createdAt,value
2022-11-05T00:00:19.371Z,21.51
2022-11-05T00:03:04.750Z,21.50
2022-11-05T00:05:50.572Z,21.51
2022-11-05T00:08:35.839Z,21.53
2022-11-05T00:11:02.438Z,21.52
2022-11-05T00:13:47.390Z,21.53
2022-11-05T00:16:32.258Z,21.50
2022-11-05T00:19:07.913Z,21.49
2022-11-05T00:21:54.507Z,21.52
2022-11-05T00:24:40.473Z,21.53
2022-11-05T00:27:07.956Z,21.53
2022-11-05T00:29:34.742Z,21.53
2022-11-05T00:32:01.747Z,21.54
2022-11-05T00:34:28.357Z,21.51
2022-11-05T00:36:55.615Z,21.55
2022-11-05T00:39:22.163Z,21.53
2022-11-05T00:42:08.655Z,21.50
2022-11-05T00:44:53.617Z,21.51
2022-11-05T00:47:40.430Z,21.55
2022-11-05T00:50:07.368Z,21.53
2022-11-05T00:53:09.728Z,21.57
2022-11-05T00:55:42.536Z,21.58
2022-11-05T00:58:14.421Z,21.58
2022-11-05T01:00:48.086Z,21.58
2022-11-05T01:03:16.706Z,21.58
2022-11-05T01:05:45.721Z,21.56
2022-11-05T01:08:13.641Z,21.57
2022-11-05T01:10:45.335Z,21.58
2022-11-05T01:13:14.334Z,21.58
2022-11-05T01:15:41.956Z,21.57
2022-11-05T01:18:08.613Z,21.55
2022-11-05T01:20:35.195Z,21.59
2022-11-05T01:23:01.759Z,21.54
2022-11-05T01:25:28.381Z,21.57
2022-11-05T01:27:55.075Z,21.54
2022-11-05T01:30:22.157Z,21.52
2022-11-05T01:32:48.998Z,21.48
2022-11-05T01:35:17.586Z,21.47
2022-11-05T01:37:44.859Z,21.53
2022-11-05T01:40:17.994Z,21.58
2022-11-05T01:42:45.485Z,21.50
2022-11-05T01:45:26.563Z,21.51
2022-11-05T01:48:25.437Z,21.44
2022-11-05T01:51:11.870Z,21.43
2022-11-05T01:53:47.960Z,21.40
2022-11-05T01:56:29.417Z,21.41
2022-11-05T01:59:02.138Z,21.39
2022-11-05T02:01:29.556Z,21.38
2022-11-05T02:03:59.972Z,21.36
2022-11-05T02:06:29.022Z,21.36
2022-11-05T02:09:17.992Z,21.34
2022-11-05T02:11:44.561Z,21.32
2022-11-05T02:14:11.089Z,21.19
2022-11-05T02:16:49.583Z,21.26
2022-11-05T02:20:12.764Z,21.56
2022-11-05T02:23:11.906Z,21.82
2022-11-05T02:25:44.545Z,22.06
2022-11-05T02:28:48.256Z,22.25
2022-11-05T02:31:53.451Z,22.32
2022-11-05T02:34:33.606Z,22.46
2022-11-05T02:37:37.977Z,22.51
2022-11-05T02:40:26.146Z,22.63
2022-11-05T02:43:31.203Z,22.67
2022-11-05T02:46:26.838Z,22.85
2022-11-05T02:49:13.504Z,22.98
2022-11-05T02:51:51.478Z,23.02
2022-11-05T02:54:26.892Z,23.00
2022-11-05T02:56:55.530Z,23.05
2022-11-05T02:59:22.101Z,23.10
2022-11-05T03:01:49.692Z,23.14
2022-11-05T03:04:19.508Z,23.20
2022-11-05T03:07:05.646Z,23.24
2022-11-05T03:09:44.230Z,23.29
2022-11-05T03:12:19.844Z,23.33
2022-11-05T03:15:26.670Z,23.38
2022-11-05T03:18:24.778Z,23.44
2022-11-05T03:20:57.202Z,23.47
2022-11-05T03:23:51.670Z,23.47
2022-11-05T03:26:22.264Z,23.50
2022-11-05T03:28:55.798Z,23.55
2022-11-05T03:31:24.884Z,23.58
2022-11-05T03:33:54.918Z,23.59
2022-11-05T03:36:30.929Z,23.64
2022-11-05T03:39:02.836Z,23.66
2022-11-05T03:41:29.665Z,23.66
2022-11-05T03:44:01.482Z,23.77
2022-11-05T03:46:32.817Z,23.72
2022-11-05T03:49:04.312Z,23.71
2022-11-05T03:51:46.029Z,23.76
2022-11-05T03:54:13.529Z,23.77
2022-11-05T03:57:07.104Z,23.82
2022-11-05T03:59:43.878Z,23.86
2022-11-05T04:02:11.973Z,23.91
2022-11-05T04:04:39.350Z,23.91
2022-11-05T04:07:24.387Z,23.98
2022-11-05T04:10:09.718Z,23.88
2022-11-05T04:12:55.144Z,23.64
2022-11-05T04:15:21.855Z,23.53
2022-11-05T04:17:48.390Z,23.42
2022-11-05T04:20:33.572Z,23.37
2022-11-05T04:23:20.887Z,23.24
2022-11-05T04:25:47.476Z,23.10
2022-11-05T04:28:14.590Z,23.02
2022-11-05T04:30:41.729Z,22.94
2022-11-05T04:33:15.631Z,22.87
2022-11-05T04:35:49.047Z,22.81
2022-11-05T04:38:18.879Z,22.75
2022-11-05T04:40:47.541Z,22.67
2022-11-05T04:43:16.795Z,22.63
2022-11-05T04:45:44.026Z,22.59
2022-11-05T04:48:10.976Z,22.54
2022-11-05T04:50:37.508Z,22.47
2022-11-05T04:53:04.042Z,22.47
2022-11-05T04:55:31.228Z,22.46
2022-11-05T04:57:57.796Z,22.46
2022-11-05T05:00:24.515Z,22.45
2022-11-05T05:02:51.069Z,22.47
2022-11-05T05:05:17.743Z,22.42
2022-11-05T05:07:44.491Z,22.42
2022-11-05T05:10:11.774Z,22.40
2022-11-05T05:12:38.566Z,22.38
2022-11-05T05:15:05.748Z,22.40
2022-11-05T05:17:32.351Z,22.40
2022-11-05T05:20:17.794Z,22.38
2022-11-05T05:22:44.336Z,22.24
2022-11-05T05:25:10.879Z,22.28
2022-11-05T05:27:37.426Z,22.26
2022-11-05T05:30:04.329Z,22.22
2022-11-05T05:32:30.938Z,22.22
2022-11-05T05:34:57.511Z,22.17
2022-11-05T05:37:24.134Z,22.15
2022-11-05T05:39:50.661Z,22.12
2022-11-05T05:42:17.253Z,22.11
2022-11-05T05:44:43.885Z,22.07
2022-11-05T05:47:10.489Z,22.09
2022-11-05T05:49:37.116Z,22.03
2022-11-05T05:52:03.853Z,22.02
2022-11-05T05:54:32.841Z,22.00
2022-11-05T05:57:01.701Z,22.00
2022-11-05T05:59:28.260Z,21.97
2022-11-05T06:01:54.936Z,21.95
2022-11-05T06:04:21.695Z,21.91
2022-11-05T06:06:48.269Z,21.84
2022-11-05T06:09:15.190Z,21.84
2022-11-05T06:11:42.218Z,21.84
2022-11-05T06:14:14.723Z,21.83
2022-11-05T06:16:41.303Z,21.84
2022-11-05T06:19:08.253Z,21.81
2022-11-05T06:21:35.269Z,21.80
2022-11-05T06:24:02.870Z,21.77
2022-11-05T06:26:29.939Z,21.77
2022-11-05T06:28:56.984Z,21.78
2022-11-05T06:31:23.730Z,21.76
2022-11-05T06:33:50.299Z,21.75
2022-11-05T06:36:19.089Z,21.76
2022-11-05T06:38:45.930Z,21.77
2022-11-05T06:41:12.493Z,21.77
2022-11-05T06:43:39.144Z,21.75
2022-11-05T06:46:06.136Z,21.77
2022-11-05T06:48:33.066Z,21.76
2022-11-05T06:50:59.648Z,21.77
2022-11-05T06:53:26.559Z,21.73
2022-11-05T06:55:53.192Z,21.73
2022-11-05T06:58:19.753Z,21.79
2022-11-05T07:00:46.613Z,21.75
2022-11-05T07:03:14.022Z,21.77
2022-11-05T07:05:45.432Z,21.74
2022-11-05T07:08:12.097Z,21.73
2022-11-05T07:10:38.684Z,21.72
2022-11-05T07:13:08.430Z,21.73
2022-11-05T07:15:36.579Z,21.76
2022-11-05T07:18:04.094Z,21.77
2022-11-05T07:20:33.879Z,21.77
2022-11-05T07:23:09.960Z,21.79
2022-11-05T07:25:36.700Z,21.79
2022-11-05T07:28:04.085Z,21.77
2022-11-05T07:30:31.818Z,21.76
2022-11-05T07:32:58.438Z,21.78
2022-11-05T07:35:25.822Z,21.83
2022-11-05T07:37:54.116Z,21.82
2022-11-05T07:40:22.002Z,21.84
2022-11-05T07:42:51.318Z,21.89
2022-11-05T07:45:18.560Z,21.94
2022-11-05T07:47:50.505Z,22.04
2022-11-05T07:50:19.118Z,22.15
2022-11-05T07:52:46.112Z,22.25
2022-11-05T07:55:13.288Z,22.49
2022-11-05T07:57:47.903Z,22.66
2022-11-05T08:00:18.181Z,23.14
2022-11-05T08:02:44.957Z,23.36
2022-11-05T08:05:11.748Z,23.29
2022-11-05T08:07:38.332Z,23.16
2022-11-05T08:10:05.197Z,23.09
2022-11-05T08:12:32.278Z,23.04
2022-11-05T08:14:58.930Z,23.26
2022-11-05T08:17:25.739Z,23.51
2022-11-05T08:19:52.341Z,23.67
2022-11-05T08:22:18.878Z,23.75
2022-11-05T08:24:45.415Z,23.67
2022-11-05T08:27:11.988Z,23.12
2022-11-05T08:29:38.562Z,22.84
2022-11-05T08:32:05.138Z,22.62
2022-11-05T08:34:31.692Z,22.46
2022-11-05T08:37:00.894Z,22.52
2022-11-05T08:39:27.573Z,22.50
2022-11-05T08:41:54.121Z,22.40
2022-11-05T08:44:20.664Z,22.43
2022-11-05T08:46:47.229Z,22.45
2022-11-05T08:49:14.158Z,22.38
2022-11-05T08:51:40.701Z,22.32
2022-11-05T08:54:07.463Z,22.22
2022-11-05T08:56:34.046Z,22.43
2022-11-05T08:59:01.080Z,22.56
2022-11-05T09:01:27.714Z,22.72
2022-11-05T09:03:54.397Z,22.54
2022-11-05T09:06:20.994Z,22.27
2022-11-05T09:08:47.560Z,22.22
2022-11-05T09:11:14.083Z,22.14
2022-11-05T09:13:40.702Z,22.08
2022-11-05T09:16:22.634Z,22.08
2022-11-05T09:18:50.175Z,22.09
2022-11-05T09:21:17.893Z,22.17
2022-11-05T09:23:45.439Z,22.39
2022-11-05T09:26:13.497Z,22.28
2022-11-05T09:28:40.913Z,22.53
2022-11-05T09:31:09.001Z,22.76
2022-11-05T09:33:37.667Z,22.61
2022-11-05T09:36:05.076Z,22.54
2022-11-05T09:38:35.118Z,22.64
2022-11-05T09:41:14.164Z,23.05
2022-11-05T09:43:44.488Z,23.69
2022-11-05T09:46:17.875Z,24.13
2022-11-05T09:48:48.407Z,24.04
2022-11-05T09:51:22.418Z,23.93
2022-11-05T09:53:50.758Z,23.53
2022-11-05T09:56:26.193Z,23.27
2022-11-05T09:59:03.012Z,22.77
2022-11-05T10:01:33.434Z,22.67
2022-11-05T10:04:05.963Z,22.76
2022-11-05T10:06:32.657Z,23.14
2022-11-05T10:09:12.200Z,23.22
2022-11-05T10:11:48.071Z,22.76
2022-11-05T10:14:22.505Z,23.09
2022-11-05T10:16:57.787Z,23.89
2022-11-05T10:19:28.327Z,23.80
2022-11-05T10:22:09.022Z,24.33
2022-11-05T10:24:35.742Z,24.75
2022-11-05T10:27:03.238Z,24.42
2022-11-05T10:29:33.185Z,23.56
2022-11-05T10:32:03.461Z,22.89
2022-11-05T10:34:33.748Z,22.40
2022-11-05T10:37:00.821Z,22.21
2022-11-05T10:39:35.232Z,22.13
2022-11-05T10:42:19.483Z,22.20
2022-11-05T10:45:07.655Z,22.22
2022-11-05T10:48:40.732Z,22.34
2022-11-05T10:51:10.537Z,22.58
2022-11-05T10:53:41.076Z,22.51
2022-11-05T10:56:34.623Z,22.41
2022-11-05T10:59:06.663Z,22.27
2022-11-05T11:01:36.584Z,22.16
2022-11-05T11:04:12.032Z,22.12
2022-11-05T11:06:47.923Z,22.12
2022-11-05T11:09:31.871Z,22.12
2022-11-05T11:12:15.472Z,22.09
2022-11-05T11:14:42.499Z,22.21
2022-11-05T11:17:27.610Z,22.15
2022-11-05T11:20:31.721Z,22.02
2022-11-05T11:23:10.146Z,21.97
2022-11-05T11:26:01.740Z,21.94
2022-11-05T11:28:36.008Z,21.92
2022-11-05T11:31:15.646Z,21.85
2022-11-05T11:33:47.115Z,21.84
2022-11-05T11:36:17.081Z,21.63
2022-11-05T11:38:44.056Z,21.50
2022-11-05T11:41:27.909Z,21.58
2022-11-05T11:44:02.143Z,21.71
2022-11-05T11:46:32.864Z,21.72
2022-11-05T11:49:00.660Z,21.72
2022-11-05T11:51:35.144Z,21.74
2022-11-05T11:54:02.841Z,21.77
2022-11-05T11:56:32.426Z,21.82
2022-11-05T11:59:11.436Z,21.80
2022-11-05T12:02:06.029Z,21.74
2022-11-05T12:04:41.671Z,21.77
2022-11-05T12:07:29.458Z,22.04
2022-11-05T12:10:21.669Z,21.76
2022-11-05T12:12:57.371Z,21.74
2022-11-05T12:15:41.957Z,22.02
2022-11-05T12:18:26.141Z,22.11
2022-11-05T12:21:34.654Z,22.28
2022-11-05T12:24:36.136Z,22.65
2022-11-05T12:27:31.885Z,22.54
2022-11-05T12:30:08.170Z,22.21
2022-11-05T12:33:12.156Z,22.39
2022-11-05T12:36:06.412Z,22.48
2022-11-05T12:38:59.106Z,22.67
2022-11-05T12:41:46.029Z,22.90
2022-11-05T12:44:53.727Z,22.29
2022-11-05T12:47:40.183Z,22.20
2022-11-05T12:50:18.798Z,22.32
2022-11-05T12:53:01.538Z,22.29
2022-11-05T12:55:36.909Z,22.24
2022-11-05T12:58:32.687Z,22.25
2022-11-05T13:01:05.420Z,22.18
2022-11-05T13:03:40.669Z,22.18
2022-11-05T13:06:13.436Z,22.28
2022-11-05T13:08:46.859Z,22.35
2022-11-05T13:11:28.523Z,22.43
2022-11-05T13:14:08.968Z,22.52
2022-11-05T13:16:40.362Z,22.50
2022-11-05T13:19:43.761Z,22.51
2022-11-05T13:22:29.018Z,22.50
2022-11-05T13:25:00.982Z,22.56
2022-11-05T13:27:39.210Z,22.63
2022-11-05T13:30:09.381Z,22.62
2022-11-05T13:32:39.283Z,22.58
2022-11-05T13:35:24.548Z,22.42
2022-11-05T13:38:17.911Z,22.38
2022-11-05T13:41:03.334Z,22.27
2022-11-05T13:43:51.686Z,22.10
2022-11-05T13:46:18.206Z,22.29
2022-11-05T13:48:53.748Z,22.45
2022-11-05T13:51:23.323Z,22.73
2022-11-05T13:54:11.156Z,22.99
2022-11-05T13:57:07.661Z,23.10
2022-11-05T13:59:46.427Z,23.35
2022-11-05T14:02:24.228Z,23.33
2022-11-05T14:05:00.556Z,23.51
2022-11-05T14:07:37.623Z,23.50
2022-11-05T14:10:25.169Z,23.15
2022-11-05T14:12:54.632Z,22.85
2022-11-05T14:15:28.159Z,22.61
2022-11-05T14:18:07.420Z,22.54
2022-11-05T14:20:34.093Z,22.57
2022-11-05T14:23:19.016Z,22.85
2022-11-05T14:25:45.504Z,22.99
2022-11-05T14:29:10.689Z,22.86
2022-11-05T14:32:09.167Z,22.91
2022-11-05T14:35:03.919Z,22.97
2022-11-05T14:37:33.898Z,22.77
2022-11-05T14:40:43.470Z,22.60
2022-11-05T14:43:26.520Z,22.42
2022-11-05T14:46:02.860Z,22.29
2022-11-05T14:48:44.697Z,22.16
2022-11-05T14:51:36.033Z,22.09
2022-11-05T14:54:08.522Z,22.10
2022-11-05T14:56:57.566Z,22.02
2022-11-05T14:59:24.076Z,22.02
2022-11-05T15:01:58.074Z,21.99
2022-11-05T15:04:31.901Z,21.95
2022-11-05T15:07:04.441Z,21.87
2022-11-05T15:09:36.679Z,21.89
2022-11-05T15:12:19.815Z,21.91
2022-11-05T15:15:02.060Z,21.91
2022-11-05T15:17:38.742Z,21.93
2022-11-05T15:20:14.340Z,21.95
2022-11-05T15:22:44.553Z,22.00
2022-11-05T15:25:33.616Z,22.03
2022-11-05T15:28:38.619Z,22.08
2022-11-05T15:31:22.774Z,22.10
2022-11-05T15:33:49.304Z,22.11
2022-11-05T15:36:30.661Z,22.13
2022-11-05T15:39:27.511Z,22.14
2022-11-05T15:41:44.974Z,22.11
2022-11-05T15:44:26.076Z,22.12
2022-11-05T15:47:30.766Z,22.10
2022-11-05T15:50:03.942Z,22.09
2022-11-05T15:52:37.154Z,22.07
2022-11-05T15:55:25.422Z,22.07
2022-11-05T15:57:59.504Z,22.02
2022-11-05T16:00:28.276Z,21.99
2022-11-05T16:03:07.528Z,21.98
2022-11-05T16:05:41.860Z,21.93
2022-11-05T16:08:18.966Z,21.89
2022-11-05T16:11:00.356Z,21.92
2022-11-05T16:13:39.931Z,21.87
2022-11-05T16:16:24.460Z,21.86
2022-11-05T16:18:51.434Z,21.83
2022-11-05T16:21:22.671Z,21.83
2022-11-05T16:23:49.212Z,21.81
2022-11-05T16:27:01.956Z,21.79
2022-11-05T16:29:39.019Z,21.76
2022-11-05T16:32:30.626Z,21.69
2022-11-05T16:35:01.435Z,21.73
2022-11-05T16:37:35.468Z,21.71
2022-11-05T16:40:03.636Z,21.69
2022-11-05T16:42:33.207Z,21.67
2022-11-05T16:44:59.778Z,21.66
2022-11-05T16:47:26.511Z,21.65
2022-11-05T16:49:53.296Z,21.61
2022-11-05T16:52:19.825Z,21.59
2022-11-05T16:54:46.496Z,21.63
2022-11-05T16:57:30.999Z,21.62
2022-11-05T16:59:59.845Z,21.61
2022-11-05T17:02:27.449Z,21.59
2022-11-05T17:04:54.086Z,21.57
2022-11-05T17:07:20.621Z,21.59
2022-11-05T17:09:47.415Z,21.54
2022-11-05T17:12:14.370Z,21.52
2022-11-05T17:14:41.279Z,21.55
2022-11-05T17:17:07.920Z,21.54
2022-11-05T17:19:34.812Z,21.52
2022-11-05T17:22:01.348Z,21.55
2022-11-05T17:24:28.010Z,21.48
2022-11-05T17:26:54.711Z,21.50
2022-11-05T17:29:21.475Z,21.50
2022-11-05T17:31:48.978Z,21.52
2022-11-05T17:34:15.554Z,21.52
2022-11-05T17:36:42.090Z,21.51
2022-11-05T17:39:08.648Z,21.54
2022-11-05T17:41:35.180Z,21.51
2022-11-05T17:44:01.733Z,21.50
2022-11-05T17:46:28.254Z,21.49
2022-11-05T17:48:55.156Z,21.48
2022-11-05T17:51:22.041Z,21.45
2022-11-05T17:53:51.672Z,21.46
2022-11-05T17:56:30.520Z,21.41
2022-11-05T17:59:01.487Z,21.43
2022-11-05T18:01:31.722Z,21.42
2022-11-05T18:04:01.269Z,21.43
2022-11-05T18:06:30.684Z,21.39
2022-11-05T18:08:57.292Z,21.38
2022-11-05T18:11:23.829Z,21.42
2022-11-05T18:13:50.478Z,21.41
2022-11-05T18:16:17.144Z,21.39
2022-11-05T18:18:43.730Z,21.36
2022-11-05T18:21:10.258Z,21.35
2022-11-05T18:23:36.843Z,21.39
2022-11-05T18:26:11.464Z,21.39
2022-11-05T18:28:38.106Z,21.37
2022-11-05T18:31:08.287Z,21.38
2022-11-05T18:33:34.983Z,21.37
2022-11-05T18:36:01.521Z,21.36
2022-11-05T18:38:28.071Z,21.31
2022-11-05T18:40:54.633Z,21.30
2022-11-05T18:43:21.173Z,21.32
2022-11-05T18:45:55.690Z,21.32
2022-11-05T18:48:22.250Z,21.34
2022-11-05T18:50:49.593Z,21.34
2022-11-05T18:53:16.304Z,21.33
2022-11-05T18:55:44.054Z,21.36
2022-11-05T18:58:10.878Z,21.36
2022-11-05T19:00:41.120Z,21.35
2022-11-05T19:03:07.863Z,21.33
2022-11-05T19:05:34.690Z,21.34
2022-11-05T19:08:01.201Z,21.35
2022-11-05T19:10:28.032Z,21.32
2022-11-05T19:12:54.742Z,21.35
2022-11-05T19:15:21.282Z,21.34
2022-11-05T19:17:47.931Z,21.35
2022-11-05T19:20:14.573Z,21.34
2022-11-05T19:22:41.098Z,21.34
2022-11-05T19:25:08.040Z,21.31
2022-11-05T19:27:35.441Z,21.32
2022-11-05T19:30:02.412Z,21.32
2022-11-05T19:32:29.265Z,21.33
2022-11-05T19:34:55.828Z,21.29
2022-11-05T19:37:22.491Z,21.33
2022-11-05T19:39:49.029Z,21.31
2022-11-05T19:42:15.557Z,21.32
2022-11-05T19:44:43.087Z,21.29
2022-11-05T19:47:09.891Z,21.33
2022-11-05T19:49:36.445Z,21.32
2022-11-05T19:52:02.981Z,21.30
2022-11-05T19:54:29.629Z,21.31
2022-11-05T19:56:56.229Z,21.31
2022-11-05T19:59:22.789Z,21.30
2022-11-05T20:01:49.451Z,21.30
2022-11-05T20:04:16.101Z,21.30
2022-11-05T20:06:42.634Z,21.26
2022-11-05T20:09:27.401Z,21.29
2022-11-05T20:11:56.283Z,21.27
2022-11-05T20:14:24.407Z,21.29
2022-11-05T20:16:50.939Z,21.27
2022-11-05T20:19:19.403Z,21.28
2022-11-05T20:21:46.152Z,21.28
2022-11-05T20:24:20.326Z,21.27
2022-11-05T20:26:50.100Z,21.28
2022-11-05T20:29:16.668Z,21.26
2022-11-05T20:31:43.184Z,21.23
2022-11-05T20:34:10.474Z,21.21
2022-11-05T20:36:37.028Z,21.23
2022-11-05T20:39:03.920Z,21.21
2022-11-05T20:41:31.482Z,21.18
2022-11-05T20:43:59.184Z,21.24
2022-11-05T20:46:25.887Z,21.21
2022-11-05T20:48:53.912Z,21.21
2022-11-05T20:51:22.827Z,21.19
2022-11-05T20:53:49.367Z,21.19
2022-11-05T20:56:22.670Z,21.23
2022-11-05T20:58:50.041Z,21.18
2022-11-05T21:01:17.415Z,21.17
2022-11-05T21:03:45.232Z,21.18
2022-11-05T21:06:12.512Z,21.16
2022-11-05T21:08:39.374Z,21.16
2022-11-05T21:11:07.189Z,21.17
2022-11-05T21:13:34.485Z,21.13
2022-11-05T21:16:01.496Z,21.15
2022-11-05T21:18:31.325Z,21.16
2022-11-05T21:21:00.391Z,21.13
2022-11-05T21:23:28.452Z,21.15
2022-11-05T21:25:55.400Z,21.14
2022-11-05T21:28:22.101Z,21.13
2022-11-05T21:30:49.154Z,21.15
2022-11-05T21:33:18.122Z,21.14
2022-11-05T21:35:47.147Z,21.12
2022-11-05T21:38:16.087Z,21.15
2022-11-05T21:40:43.266Z,21.12
2022-11-05T21:43:09.817Z,21.12
2022-11-05T21:45:41.061Z,21.14
2022-11-05T21:48:09.026Z,21.13
2022-11-05T21:50:57.116Z,21.12
2022-11-05T21:53:42.332Z,21.09
2022-11-05T21:56:48.078Z,21.08
2022-11-05T21:59:36.353Z,21.05
2022-11-05T22:02:04.227Z,21.06
2022-11-05T22:04:32.652Z,21.05
2022-11-05T22:06:59.667Z,21.05
2022-11-05T22:09:26.674Z,21.07
2022-11-05T22:11:53.860Z,21.08
2022-11-05T22:14:20.433Z,21.11
2022-11-05T22:16:47.152Z,21.13
2022-11-05T22:19:13.690Z,21.11
2022-11-05T22:21:40.256Z,21.09
2022-11-05T22:24:07.292Z,21.09
2022-11-05T22:26:34.550Z,21.06
2022-11-05T22:29:01.085Z,21.08
2022-11-05T22:31:33.125Z,21.08
2022-11-05T22:34:02.836Z,21.07
2022-11-05T22:36:29.363Z,21.09
2022-11-05T22:38:55.900Z,21.10
2022-11-05T22:41:22.644Z,21.09
2022-11-05T22:43:49.346Z,21.09
2022-11-05T22:46:21.490Z,21.09
2022-11-05T22:48:49.397Z,21.09
2022-11-05T22:51:21.345Z,21.08
2022-11-05T22:53:48.432Z,21.09
2022-11-05T22:56:17.541Z,21.09
2022-11-05T22:58:44.151Z,21.09
2022-11-05T23:01:11.871Z,21.04
2022-11-05T23:03:40.667Z,21.07
2022-11-05T23:06:38.245Z,21.09
2022-11-05T23:09:26.093Z,21.15
2022-11-05T23:11:53.860Z,21.16
2022-11-05T23:14:20.748Z,21.19
2022-11-05T23:17:06.084Z,21.19
2022-11-05T23:19:51.326Z,21.19
2022-11-05T23:22:43.981Z,21.21
2022-11-05T23:25:19.510Z,21.22
2022-11-05T23:27:52.052Z,21.22
2022-11-05T23:30:21.652Z,21.23
2022-11-05T23:32:48.473Z,21.24
2022-11-05T23:35:15.262Z,21.22
2022-11-05T23:38:02.288Z,21.22
2022-11-05T23:40:30.941Z,21.21
2022-11-05T23:43:16.619Z,21.22
2022-11-05T23:46:02.815Z,21.20
2022-11-05T23:48:35.578Z,21.21
2022-11-05T23:51:07.435Z,21.21
2022-11-05T23:53:37.320Z,21.21
2022-11-05T23:56:14.985Z,21.25
2022-11-05T23:58:42.508Z,21.25
